This is the latest recevied weather packets stored in our database for station/object KE0YJJ-14. If no packets are shown the sender has not sent any weather packets the latest 10 day(s).
| Time | Temp. | Humidity | Pressure | Rain* | Wind** | Luminosity | Snow |
|---|---|---|---|---|---|---|---|
| 1777641918 | 5° C | 60% | - | 0 mm | - | - | - |
| 1777641613 | 5° C | 58% | - | 0 mm | - | - | - |
| 1777641308 | 5.56° C | 57% | - | 0 mm | - | - | - |
| 1777641004 | 5.56° C | 59% | - | 0 mm | - | - | - |
| 1777640701 | 5.56° C | 56% | - | 0 mm | - | - | - |
| 1777640397 | 5.56° C | 57% | - | 0 mm | - | - | - |
| 1777640094 | 4.44° C | 56% | - | 0 mm | - | - | - |
| 1777639791 | 4.44° C | 58% | - | 0 mm | - | - | - |
| 1777639489 | 4.44° C | 61% | - | 0 mm | - | - | - |
| 1777639185 | 3.89° C | 64% | - | 0 mm | - | - | - |
| 1777638881 | 3.33° C | 72% | - | 0 mm | - | - | - |
| 1777638577 | 1.67° C | 80% | - | 0 mm | - | - | - |
| 1777638274 | 1.67° C | 82% | - | 0 mm | - | - | - |
| 1777637970 | 1.67° C | 82% | - | 0 mm | - | - | - |
| 1777637666 | 1.67° C | 83% | - | 0 mm | - | - | - |
| 1777637364 | 1.67° C | 82% | - | 0 mm | - | - | - |
| 1777637060 | 1.67° C | 82% | - | 0 mm | - | - | - |
| 1777636756 | 1.11° C | 82% | - | 0 mm | - | - | - |
| 1777636452 | 1.11° C | 83% | - | 0 mm | - | - | - |
| 1777636149 | 1.11° C | 83% | - | 0 mm | - | - | - |
| 1777635843 | 1.11° C | 83% | - | 0 mm | - | - | - |
| 1777635540 | 1.11° C | 84% | - | 0 mm | - | - | - |
| 1777635237 | 1.11° C | 84% | - | 0 mm | - | - | - |
| 1777634933 | 1.11° C | 84% | - | 0 mm | - | - | - |
| 1777634630 | 1.11° C | 84% | - | 0 mm | - | - | - |
* Rain latest hour (hover to see other rain measurements)
** Current wind speed in m/s (hover to see current wind gust speed)